createdAt,value
2022-12-23T00:00:30.912Z,6.07
2022-12-23T00:02:59.774Z,5.67
2022-12-23T00:05:34.140Z,5.53
2022-12-23T00:08:07.013Z,5.00
2022-12-23T00:10:38.958Z,5.00
2022-12-23T00:13:41.503Z,4.80
2022-12-23T00:16:12.995Z,4.40
2022-12-23T00:19:11.805Z,4.03
2022-12-23T00:21:40.505Z,4.10
2022-12-23T00:24:09.473Z,3.90
2022-12-23T00:26:38.298Z,4.27
2022-12-23T00:29:08.441Z,4.60
2022-12-23T00:31:37.250Z,3.93
2022-12-23T00:34:06.097Z,3.87
2022-12-23T00:36:34.892Z,3.93
2022-12-23T00:39:21.260Z,4.03
2022-12-23T00:42:22.073Z,3.60
2022-12-23T00:44:52.213Z,3.40
2022-12-23T00:47:38.245Z,3.40
2022-12-23T00:50:08.631Z,3.07
2022-12-23T00:52:37.349Z,3.40
2022-12-23T00:55:07.468Z,2.93
2022-12-23T00:57:36.371Z,2.93
2022-12-23T01:00:08.643Z,3.00
2022-12-23T01:02:54.907Z,3.00
2022-12-23T01:05:38.867Z,2.77
2022-12-23T01:08:12.393Z,2.13
2022-12-23T01:10:43.223Z,2.40
2022-12-23T01:13:12.039Z,2.57
2022-12-23T01:15:42.265Z,2.97
2022-12-23T01:18:11.076Z,2.60
2022-12-23T01:20:40.308Z,3.20
2022-12-23T01:23:09.450Z,2.90
2022-12-23T01:25:38.243Z,2.43
2022-12-23T01:28:07.087Z,2.00
2022-12-23T01:30:35.827Z,2.97
2022-12-23T01:33:06.043Z,2.37
2022-12-23T01:35:34.745Z,2.80
2022-12-23T01:38:03.494Z,2.53
2022-12-23T01:40:36.862Z,2.70
2022-12-23T01:43:04.925Z,2.20
2022-12-23T01:45:35.112Z,2.00
2022-12-23T01:48:12.952Z,2.30
2022-12-23T01:50:47.971Z,2.03
2022-12-23T01:53:23.007Z,2.37
2022-12-23T01:55:59.299Z,1.80
2022-12-23T01:58:33.551Z,2.13
2022-12-23T02:01:20.353Z,1.77
2022-12-23T02:03:54.595Z,1.70
2022-12-23T02:06:45.520Z,1.87
2022-12-23T02:09:20.109Z,1.60
2022-12-23T02:12:39.853Z,1.80
2022-12-23T02:15:47.342Z,1.73
2022-12-23T02:18:40.102Z,1.60
2022-12-23T02:21:33.208Z,1.40
2022-12-23T02:24:52.360Z,1.57
2022-12-23T02:27:30.259Z,1.60
2022-12-23T02:30:47.229Z,1.40
2022-12-23T02:37:06.485Z,1.40
2022-12-23T02:39:45.984Z,1.20
2022-12-23T02:42:21.696Z,1.30
2022-12-23T02:45:01.010Z,1.50
2022-12-23T02:47:40.336Z,1.30
2022-12-23T02:50:19.428Z,1.60
2022-12-23T02:52:52.127Z,1.60
2022-12-23T02:55:27.814Z,1.53
2022-12-23T02:58:01.727Z,1.27
2022-12-23T03:00:32.276Z,1.27
2022-12-23T03:03:02.915Z,1.50
2022-12-23T03:05:39.186Z,1.43
2022-12-23T03:08:16.327Z,1.20
2022-12-23T03:11:05.229Z,2.50
2022-12-23T03:14:12.501Z,2.57
2022-12-23T03:16:58.242Z,1.37
2022-12-23T03:19:41.314Z,1.30
2022-12-23T03:22:23.162Z,1.50
2022-12-23T03:25:01.960Z,1.20
2022-12-23T03:27:41.467Z,1.50
2022-12-23T03:30:15.888Z,1.20
2022-12-23T03:32:51.683Z,1.20
2022-12-23T03:35:28.501Z,1.27
2022-12-23T03:38:01.917Z,0.97
2022-12-23T03:40:37.963Z,1.03
2022-12-23T03:43:15.570Z,1.00
2022-12-23T03:45:52.732Z,1.00
2022-12-23T03:48:25.128Z,1.17
2022-12-23T03:51:02.429Z,0.87
2022-12-23T03:53:37.311Z,4.27
2022-12-23T03:56:11.737Z,1.60
2022-12-23T03:58:49.143Z,1.20
2022-12-23T04:01:27.148Z,1.13
2022-12-23T04:04:07.934Z,0.90
2022-12-23T04:06:53.223Z,1.00
2022-12-23T04:09:25.796Z,1.00
2022-12-23T04:11:56.188Z,0.90
2022-12-23T04:14:25.529Z,4.43
2022-12-23T04:17:05.295Z,6.70
2022-12-23T04:19:34.146Z,1.10
2022-12-23T04:22:04.512Z,1.30
2022-12-23T04:24:33.405Z,0.83
2022-12-23T04:27:02.277Z,3.90
2022-12-23T04:29:31.049Z,8.90
2022-12-23T04:31:59.912Z,4.70
2022-12-23T04:34:28.607Z,2.77
2022-12-23T04:36:57.448Z,1.50
2022-12-23T04:39:27.623Z,1.50
2022-12-23T04:41:56.441Z,1.27
2022-12-23T04:44:25.266Z,0.97
2022-12-23T04:46:54.221Z,0.80
2022-12-23T04:49:23.036Z,0.93
2022-12-23T04:51:51.836Z,0.63
2022-12-23T04:54:20.654Z,0.70
2022-12-23T04:56:50.834Z,0.90
2022-12-23T04:59:19.824Z,0.70
2022-12-23T05:02:15.239Z,0.80
2022-12-23T05:04:45.340Z,0.70
2022-12-23T05:07:15.275Z,0.63
2022-12-23T05:09:44.061Z,0.63
2022-12-23T05:12:14.541Z,0.70
2022-12-23T05:14:43.312Z,0.80
2022-12-23T05:17:12.118Z,0.43
2022-12-23T05:19:42.926Z,0.50
2022-12-23T05:22:11.699Z,0.70
2022-12-23T05:24:40.481Z,0.70
2022-12-23T05:27:09.261Z,0.60
2022-12-23T05:29:39.371Z,0.60
2022-12-23T05:32:08.239Z,0.63
2022-12-23T05:34:36.952Z,0.60
2022-12-23T05:37:05.707Z,0.50
2022-12-23T05:39:34.507Z,0.60
2022-12-23T05:42:03.391Z,0.77
2022-12-23T05:44:34.392Z,0.50
2022-12-23T05:47:04.789Z,0.50
2022-12-23T05:49:33.574Z,0.70
2022-12-23T05:52:02.383Z,0.63
2022-12-23T05:54:31.090Z,0.70
2022-12-23T05:56:59.840Z,0.70
2022-12-23T05:59:31.339Z,0.90
2022-12-23T06:02:00.604Z,0.73
2022-12-23T06:04:31.053Z,0.80
2022-12-23T06:06:59.821Z,0.50
2022-12-23T06:09:28.573Z,0.90
2022-12-23T06:11:57.656Z,0.70
2022-12-23T06:14:31.604Z,1.10
2022-12-23T06:17:00.583Z,0.87
2022-12-23T06:19:31.235Z,1.00
2022-12-23T06:22:00.451Z,0.87
2022-12-23T06:24:30.777Z,5.53
2022-12-23T06:27:01.844Z,1.30
2022-12-23T06:29:53.103Z,1.53
2022-12-23T06:32:26.794Z,1.23
2022-12-23T06:34:57.499Z,1.40
2022-12-23T06:37:26.628Z,1.20
2022-12-23T06:39:55.427Z,1.47
2022-12-23T06:42:24.276Z,1.37
2022-12-23T06:44:53.387Z,1.67
2022-12-23T06:47:52.146Z,2.10
2022-12-23T06:50:25.845Z,1.80
2022-12-23T06:54:25.478Z,2.10
2022-12-23T06:56:55.486Z,1.90
2022-12-23T06:59:24.711Z,2.37
2022-12-23T07:01:54.045Z,3.60
2022-12-23T07:04:23.481Z,3.00
2022-12-23T07:06:54.967Z,5.13
2022-12-23T07:09:23.857Z,5.40
2022-12-23T07:11:52.700Z,5.73
2022-12-23T07:14:23.710Z,4.90
2022-12-23T07:16:52.888Z,5.23
2022-12-23T07:19:24.333Z,4.30
2022-12-23T07:21:57.763Z,5.20
2022-12-23T07:24:26.975Z,5.00
2022-12-23T07:26:56.219Z,5.00
2022-12-23T07:29:49.741Z,6.87
2022-12-23T07:32:21.584Z,7.30
2022-12-23T07:34:53.233Z,6.80
2022-12-23T07:37:28.091Z,8.23
2022-12-23T07:39:57.976Z,7.47
2022-12-23T07:46:33.501Z,6.00
2022-12-23T07:49:01.908Z,5.70
2022-12-23T07:51:30.188Z,4.90
2022-12-23T07:54:00.868Z,4.97
2022-12-23T07:56:28.921Z,4.60
2022-12-23T07:58:56.491Z,3.13
2022-12-23T08:01:24.195Z,2.90
2022-12-23T08:08:44.262Z,2.83
2022-12-23T08:11:14.423Z,2.40
2022-12-23T08:13:44.923Z,2.50
2022-12-23T08:16:13.179Z,1.83
2022-12-23T08:18:46.336Z,2.20
2022-12-23T08:21:20.456Z,2.00
2022-12-23T08:23:52.483Z,1.37
2022-12-23T08:26:24.247Z,1.50
2022-12-23T08:28:55.366Z,1.80
2022-12-23T08:31:27.055Z,1.30
2022-12-23T08:33:58.441Z,1.43
2022-12-23T08:36:32.064Z,1.73
2022-12-23T08:39:07.039Z,1.80
2022-12-23T08:41:40.322Z,1.60
2022-12-23T08:44:09.906Z,3.00
2022-12-23T08:46:39.916Z,2.90
2022-12-23T08:49:09.661Z,3.37
2022-12-23T08:51:39.835Z,2.63
2022-12-23T08:54:12.965Z,6.73
2022-12-23T08:56:44.015Z,5.17
2022-12-23T08:59:19.632Z,4.10
2022-12-23T09:01:49.422Z,3.50
2022-12-23T09:04:37.829Z,3.73
2022-12-23T09:07:07.167Z,3.77
2022-12-23T09:09:39.830Z,3.73
2022-12-23T09:12:14.979Z,1.80
2022-12-23T09:14:47.735Z,3.03
2022-12-23T09:17:18.071Z,2.77
2022-12-23T09:19:52.428Z,2.73
2022-12-23T09:22:21.822Z,2.30
2022-12-23T09:24:52.169Z,1.70
2022-12-23T09:27:48.017Z,2.33
2022-12-23T09:30:17.298Z,1.10
2022-12-23T09:32:48.137Z,0.93
2022-12-23T09:35:19.221Z,1.10
2022-12-23T09:37:48.017Z,1.30
2022-12-23T09:40:22.552Z,1.60
2022-12-23T09:43:13.897Z,1.37
2022-12-23T09:46:08.319Z,4.47
2022-12-23T09:48:46.128Z,1.60
2022-12-23T09:51:19.525Z,4.50
2022-12-23T09:54:00.858Z,1.53
2022-12-23T09:56:54.108Z,0.93
2022-12-23T09:59:50.435Z,1.27
2022-12-23T10:02:32.928Z,1.60
2022-12-23T10:05:20.817Z,1.60
2022-12-23T10:07:56.988Z,1.33
2022-12-23T10:10:36.233Z,1.17
2022-12-23T10:13:19.788Z,1.20
2022-12-23T10:15:52.176Z,0.90
2022-12-23T10:18:29.338Z,1.13
2022-12-23T10:21:05.461Z,1.87
2022-12-23T10:23:39.359Z,1.37
2022-12-23T10:26:18.520Z,1.10
2022-12-23T10:28:49.183Z,1.23
2022-12-23T10:31:40.412Z,1.30
2022-12-23T10:34:20.815Z,1.60
2022-12-23T10:37:01.800Z,1.20
2022-12-23T10:39:43.426Z,1.80
2022-12-23T10:42:25.680Z,1.70
2022-12-23T10:45:24.708Z,1.40
2022-12-23T10:48:14.002Z,1.80
2022-12-23T10:51:02.754Z,1.30
2022-12-23T10:53:41.631Z,1.50
2022-12-23T10:56:11.066Z,1.50
2022-12-23T10:58:46.148Z,1.70
2022-12-23T11:01:26.596Z,1.60
2022-12-23T11:04:10.539Z,3.10
2022-12-23T11:06:44.183Z,1.47
2022-12-23T11:09:20.830Z,1.37
2022-12-23T11:12:00.272Z,9.47
2022-12-23T11:14:39.477Z,2.10
2022-12-23T11:17:23.864Z,1.53
2022-12-23T11:20:15.338Z,3.23
2022-12-23T11:22:51.878Z,1.70
2022-12-23T11:25:34.305Z,1.33
2022-12-23T11:28:14.374Z,2.10
2022-12-23T11:35:41.155Z,1.80
2022-12-23T11:38:14.550Z,7.10
2022-12-23T11:40:47.616Z,1.40
2022-12-23T11:43:18.349Z,1.60
2022-12-23T11:45:45.840Z,1.90
2022-12-23T11:48:30.096Z,1.40
2022-12-23T11:51:04.067Z,3.70
2022-12-23T11:58:48.274Z,1.70
2022-12-23T12:01:20.228Z,1.77
2022-12-23T12:03:54.505Z,1.20
2022-12-23T12:06:23.936Z,1.33
2022-12-23T12:08:57.763Z,1.03
2022-12-23T12:11:32.868Z,1.03
2022-12-23T12:14:07.530Z,1.03
2022-12-23T12:16:55.297Z,1.20
2022-12-23T12:19:30.121Z,1.23
2022-12-23T12:22:04.880Z,1.20
2022-12-23T12:24:42.572Z,4.30
2022-12-23T12:27:13.264Z,1.13
2022-12-23T12:29:52.309Z,1.20
2022-12-23T12:32:37.774Z,1.10
2022-12-23T12:35:14.348Z,1.13
2022-12-23T12:37:49.509Z,0.97
2022-12-23T12:40:31.848Z,1.70
2022-12-23T12:43:13.259Z,2.07
2022-12-23T12:45:53.343Z,1.60
2022-12-23T12:48:41.904Z,1.50
2022-12-23T12:51:22.759Z,1.90
2022-12-23T12:54:06.542Z,2.03
2022-12-23T12:56:43.230Z,1.27
2022-12-23T12:59:19.240Z,0.93
2022-12-23T13:02:07.436Z,1.70
2022-12-23T13:05:14.646Z,1.60
2022-12-23T13:07:59.661Z,1.03
2022-12-23T13:10:44.497Z,1.60
2022-12-23T13:13:34.696Z,1.20
2022-12-23T13:16:39.039Z,1.30
2022-12-23T13:19:27.410Z,1.10
2022-12-23T13:22:05.122Z,0.73
2022-12-23T13:24:56.096Z,1.10
2022-12-23T13:31:58.258Z,1.70
2022-12-23T13:34:40.028Z,1.50
2022-12-23T13:37:22.810Z,1.00
2022-12-23T13:40:02.076Z,1.00
2022-12-23T13:42:38.294Z,1.20
2022-12-23T13:45:15.243Z,1.00
2022-12-23T13:48:04.364Z,1.13
2022-12-23T15:57:50.183Z,6.33
2022-12-23T16:00:25.188Z,5.37
2022-12-23T16:03:01.013Z,5.87
2022-12-23T16:05:35.582Z,6.90
2022-12-23T16:08:13.164Z,7.40
2022-12-23T16:10:43.759Z,6.03
2022-12-23T16:13:20.062Z,5.90
2022-12-23T16:15:49.249Z,7.07
2022-12-23T16:18:25.723Z,8.57
2022-12-23T16:20:57.830Z,6.13
2022-12-23T16:23:32.539Z,6.53
2022-12-23T16:26:04.107Z,7.53
2022-12-23T16:28:42.789Z,5.17
2022-12-23T16:31:16.686Z,4.30
2022-12-23T16:33:50.324Z,4.77
2022-12-23T16:36:33.543Z,5.33
2022-12-23T16:39:20.295Z,4.53
2022-12-23T16:41:49.171Z,3.87
2022-12-23T16:44:19.443Z,3.07
2022-12-23T16:46:51.933Z,3.97
2022-12-23T16:49:29.513Z,5.80
2022-12-23T16:52:00.145Z,4.50
2022-12-23T16:54:29.069Z,4.50
2022-12-23T16:56:58.167Z,3.77
2022-12-23T16:59:28.406Z,5.07
2022-12-23T17:02:03.136Z,2.90
2022-12-23T17:04:32.798Z,3.20
2022-12-23T17:07:01.625Z,2.90
2022-12-23T17:09:30.430Z,2.80
2022-12-23T17:11:59.233Z,3.10
2022-12-23T17:14:29.491Z,2.37
2022-12-23T17:16:58.563Z,3.77
2022-12-23T17:19:29.279Z,3.57
2022-12-23T17:22:04.631Z,3.33
2022-12-23T17:24:33.549Z,2.80
2022-12-23T17:27:02.343Z,9.03
2022-12-23T17:29:34.912Z,9.60
2022-12-23T17:32:03.868Z,6.30
2022-12-23T17:34:32.986Z,7.17
2022-12-23T17:37:02.120Z,7.20
2022-12-23T17:39:30.961Z,8.67
2022-12-23T17:41:59.795Z,8.60
2022-12-23T17:44:28.589Z,8.40
2022-12-23T17:47:00.026Z,5.43
2022-12-23T17:49:28.975Z,4.70
2022-12-23T17:51:57.724Z,3.90
2022-12-23T17:54:28.278Z,3.90
2022-12-23T17:56:58.719Z,5.37
2022-12-23T17:59:28.020Z,5.30
2022-12-23T18:01:58.820Z,5.20
2022-12-23T18:04:28.101Z,6.03
2022-12-23T18:06:57.146Z,6.67
2022-12-23T18:09:26.677Z,6.90
2022-12-23T18:11:55.975Z,4.70
2022-12-23T18:14:28.482Z,4.83
2022-12-23T18:16:59.301Z,4.57
2022-12-23T18:19:28.151Z,5.47
2022-12-23T18:21:57.601Z,5.60
2022-12-23T18:24:27.305Z,4.30
2022-12-23T18:26:56.110Z,6.70
2022-12-23T18:29:24.954Z,5.43
2022-12-23T18:31:53.735Z,4.10
2022-12-23T18:34:23.882Z,6.18
2022-12-23T18:36:52.668Z,5.87
2022-12-23T18:39:27.559Z,5.37
2022-12-23T18:41:56.524Z,6.57
2022-12-23T18:44:26.022Z,9.10
2022-12-23T18:46:54.997Z,7.13
2022-12-23T18:49:25.459Z,6.20
2022-12-23T18:51:54.206Z,8.20
2022-12-23T18:54:22.893Z,9.13
2022-12-23T18:56:51.633Z,9.73
2022-12-23T18:59:29.938Z,10.73
2022-12-23T19:01:59.284Z,9.90
2022-12-23T19:04:29.627Z,10.40
2022-12-23T19:06:58.936Z,11.77
2022-12-23T19:09:29.274Z,10.70
2022-12-23T19:11:59.415Z,14.67
2022-12-23T19:14:30.282Z,10.03
2022-12-23T19:17:00.153Z,18.70
2022-12-23T19:19:31.604Z,15.23
2022-12-23T19:22:01.660Z,12.53
2022-12-23T19:24:32.452Z,11.77
2022-12-23T19:27:05.126Z,15.97
2022-12-23T19:29:44.363Z,16.07
2022-12-23T19:32:18.509Z,17.70
2022-12-23T19:34:55.134Z,14.53
2022-12-23T19:37:27.347Z,14.60
2022-12-23T19:39:58.556Z,18.17
2022-12-23T19:42:34.895Z,8.13
2022-12-23T19:45:04.134Z,9.70
2022-12-23T19:47:32.948Z,5.00
2022-12-23T19:50:15.840Z,5.90
2022-12-23T19:52:45.711Z,6.07
2022-12-23T19:55:16.000Z,6.20
2022-12-23T19:57:45.358Z,6.97
2022-12-23T20:00:16.809Z,6.97
2022-12-23T20:02:45.643Z,7.90
2022-12-23T20:05:15.868Z,8.17
2022-12-23T20:07:44.641Z,8.87
2022-12-23T20:10:14.541Z,7.60
2022-12-23T20:12:43.408Z,7.80
2022-12-23T20:15:12.546Z,6.93
2022-12-23T20:17:41.685Z,8.33
2022-12-23T20:20:12.491Z,12.23
2022-12-23T20:22:42.926Z,7.57
2022-12-23T20:25:12.115Z,8.90
2022-12-23T20:27:40.834Z,6.73
2022-12-23T20:30:12.915Z,11.33
2022-12-23T20:32:41.873Z,8.77
2022-12-23T20:35:11.234Z,14.67
2022-12-23T20:37:41.449Z,8.07
2022-12-23T20:40:13.651Z,9.30
2022-12-23T20:42:42.435Z,9.30
2022-12-23T20:45:12.104Z,9.10
2022-12-23T20:47:41.247Z,8.33
2022-12-23T20:50:10.663Z,7.97
2022-12-23T20:52:39.487Z,9.80
2022-12-23T20:55:11.040Z,8.50
2022-12-23T20:57:39.908Z,9.10
2022-12-23T21:00:11.271Z,8.27
2022-12-23T21:02:41.997Z,8.20
2022-12-23T21:05:11.887Z,7.33
2022-12-23T21:07:47.849Z,10.17
2022-12-23T21:10:18.772Z,11.17
2022-12-23T21:12:47.786Z,11.23
2022-12-23T21:15:17.002Z,13.43
2022-12-23T21:17:45.949Z,13.30
2022-12-23T21:20:15.034Z,9.70
2022-12-23T21:22:43.963Z,18.33
2022-12-23T21:25:12.852Z,19.77
2022-12-23T21:27:43.264Z,13.87
2022-12-23T21:30:13.582Z,10.50
2022-12-23T21:32:43.544Z,9.77
2022-12-23T21:35:12.476Z,14.00
2022-12-23T21:37:41.508Z,14.70
2022-12-23T21:40:12.603Z,14.30
2022-12-23T21:42:43.239Z,14.07
2022-12-23T21:45:12.808Z,15.67
2022-12-23T21:47:41.800Z,14.07
2022-12-23T21:50:11.957Z,12.23
2022-12-23T21:52:40.960Z,13.30
2022-12-23T21:55:15.739Z,14.70
2022-12-23T21:57:46.129Z,11.33
2022-12-23T22:00:15.807Z,10.70
2022-12-23T22:02:44.792Z,10.37
2022-12-23T22:05:13.820Z,11.23
2022-12-23T22:07:42.671Z,11.13
2022-12-23T22:10:12.196Z,8.17
2022-12-23T22:12:41.008Z,9.70
2022-12-23T22:15:12.853Z,6.23
2022-12-23T22:17:42.134Z,5.63
2022-12-23T22:20:12.223Z,5.87
2022-12-23T22:22:40.983Z,4.37
2022-12-23T22:25:10.950Z,3.20
2022-12-23T22:27:39.658Z,2.00
2022-12-23T22:30:12.190Z,2.07
2022-12-23T22:32:42.731Z,1.80
2022-12-23T22:35:11.831Z,1.37
2022-12-23T22:37:40.678Z,1.30
2022-12-23T22:40:11.369Z,0.97
2022-12-23T22:42:40.211Z,1.17
2022-12-23T22:45:13.479Z,2.60
2022-12-23T22:47:42.564Z,2.07
2022-12-23T22:50:12.244Z,1.27
2022-12-23T22:52:41.077Z,1.37
2022-12-23T22:55:11.229Z,1.13
2022-12-23T22:57:40.023Z,1.20
2022-12-23T23:00:13.045Z,1.23
2022-12-23T23:02:42.007Z,1.20
2022-12-23T23:05:13.197Z,1.60
2022-12-23T23:07:42.370Z,1.20
2022-12-23T23:10:12.267Z,1.20
2022-12-23T23:12:41.141Z,1.50
2022-12-23T23:15:12.802Z,1.23
2022-12-23T23:17:41.844Z,1.40
2022-12-23T23:20:11.757Z,1.20
2022-12-23T23:22:40.500Z,1.20
2022-12-23T23:25:10.711Z,1.30
2022-12-23T23:27:39.445Z,1.40
2022-12-23T23:30:11.731Z,1.40
2022-12-23T23:32:41.712Z,1.23
2022-12-23T23:35:11.251Z,1.10
2022-12-23T23:37:40.052Z,1.50
2022-12-23T23:40:11.037Z,1.30
2022-12-23T23:42:39.913Z,1.37
2022-12-23T23:45:11.712Z,1.10
2022-12-23T23:47:40.639Z,1.33
2022-12-23T23:50:10.784Z,1.30
2022-12-23T23:52:39.596Z,1.60
2022-12-23T23:55:10.119Z,1.40
2022-12-23T23:57:39.004Z,1.20
